createdAt,value
2022-10-08T00:02:11.857Z,3.10
2022-10-08T00:05:14.994Z,2.87
2022-10-08T00:08:17.934Z,2.30
2022-10-08T00:11:23.206Z,2.60
2022-10-08T00:14:27.572Z,3.00
2022-10-08T00:17:30.556Z,2.97
2022-10-08T00:20:33.778Z,3.20
2022-10-08T00:23:36.756Z,3.90
2022-10-08T00:26:43.565Z,4.00
2022-10-08T00:29:48.575Z,4.13
2022-10-08T00:32:51.498Z,3.27
2022-10-08T00:35:54.507Z,3.60
2022-10-08T00:38:58.364Z,3.50
2022-10-08T00:42:02.167Z,3.10
2022-10-08T00:45:12.401Z,3.23
2022-10-08T00:48:20.960Z,3.27
2022-10-08T00:51:25.361Z,4.07
2022-10-08T00:54:29.587Z,3.43
2022-10-08T00:57:32.721Z,3.67
2022-10-08T01:00:37.033Z,3.93
2022-10-08T01:03:40.009Z,3.03
2022-10-08T01:06:48.595Z,3.23
2022-10-08T01:09:59.490Z,3.33
2022-10-08T01:13:16.660Z,2.57
2022-10-08T01:16:28.549Z,2.77
2022-10-08T01:19:55.849Z,3.03
2022-10-08T01:23:22.575Z,3.10
2022-10-08T01:26:39.979Z,3.27
2022-10-08T01:29:48.899Z,2.47
2022-10-08T01:32:57.715Z,2.83
2022-10-08T01:36:04.189Z,3.17
2022-10-08T01:39:11.749Z,3.43
2022-10-08T01:42:16.287Z,2.87
2022-10-08T01:45:25.371Z,2.50
2022-10-08T01:48:32.686Z,2.80
2022-10-08T01:51:40.843Z,2.77
2022-10-08T01:54:48.708Z,3.00
2022-10-08T01:57:53.410Z,2.70
2022-10-08T02:01:00.425Z,2.90
2022-10-08T02:04:21.355Z,3.30
2022-10-08T02:07:28.954Z,2.90
2022-10-08T02:10:32.435Z,3.30
2022-10-08T02:13:35.450Z,3.20
2022-10-08T02:16:45.463Z,2.90
2022-10-08T02:19:54.346Z,3.03
2022-10-08T02:23:03.173Z,2.83
2022-10-08T02:26:10.203Z,3.00
2022-10-08T02:29:17.888Z,2.97
2022-10-08T02:32:28.960Z,3.07
2022-10-08T02:35:38.692Z,2.57
2022-10-08T02:38:47.701Z,2.97
2022-10-08T02:41:53.975Z,3.33
2022-10-08T02:45:02.091Z,2.60
2022-10-08T02:48:11.804Z,2.20
2022-10-08T02:51:18.597Z,2.60
2022-10-08T02:54:23.669Z,2.30
2022-10-08T02:57:32.171Z,2.57
2022-10-08T03:00:39.987Z,2.50
2022-10-08T03:03:48.979Z,2.93
2022-10-08T03:06:54.088Z,3.40
2022-10-08T03:09:59.123Z,3.40
2022-10-08T03:13:03.510Z,2.57
2022-10-08T03:16:09.809Z,2.67
2022-10-08T03:19:16.846Z,3.10
2022-10-08T03:22:20.139Z,2.73
2022-10-08T03:25:23.090Z,2.90
2022-10-08T03:28:26.076Z,2.50
2022-10-08T03:31:29.040Z,2.63
2022-10-08T03:34:33.732Z,2.80
2022-10-08T03:37:36.691Z,2.67
2022-10-08T03:40:39.667Z,2.87
2022-10-08T03:43:42.667Z,2.60
2022-10-08T03:46:45.628Z,2.77
2022-10-08T03:49:49.899Z,2.30
2022-10-08T03:52:52.861Z,2.93
2022-10-08T03:55:56.208Z,2.53
2022-10-08T03:59:00.844Z,2.13
2022-10-08T04:02:03.885Z,2.57
2022-10-08T04:05:09.326Z,2.73
2022-10-08T04:08:12.277Z,2.93
2022-10-08T04:11:17.134Z,3.90
2022-10-08T04:14:20.163Z,2.83
2022-10-08T04:17:23.146Z,2.87
2022-10-08T04:20:27.479Z,3.23
2022-10-08T04:23:33.231Z,2.77
2022-10-08T04:26:36.344Z,2.90
2022-10-08T04:29:39.280Z,3.00
2022-10-08T04:32:42.390Z,2.90
2022-10-08T04:35:46.689Z,2.70
2022-10-08T04:38:50.342Z,3.10
2022-10-08T04:41:53.297Z,2.77
2022-10-08T04:44:56.237Z,3.00
2022-10-08T04:47:59.184Z,2.80
2022-10-08T04:51:10.248Z,2.87
2022-10-08T04:54:13.638Z,3.30
2022-10-08T04:57:16.622Z,2.83
2022-10-08T05:00:19.751Z,2.87
2022-10-08T05:03:22.719Z,3.20
2022-10-08T05:06:28.654Z,2.97
2022-10-08T05:09:31.602Z,2.77
2022-10-08T05:12:34.753Z,3.33
2022-10-08T05:15:37.797Z,3.57
2022-10-08T05:18:42.836Z,2.67
2022-10-08T05:21:47.137Z,3.17
2022-10-08T05:24:50.077Z,2.97
2022-10-08T05:27:53.014Z,3.40
2022-10-08T05:31:00.870Z,2.93
2022-10-08T05:34:03.837Z,3.20
2022-10-08T05:37:08.156Z,3.00
2022-10-08T05:40:11.943Z,3.43
2022-10-08T05:43:14.903Z,3.87
2022-10-08T05:46:18.838Z,2.80
2022-10-08T05:49:23.823Z,3.50
2022-10-08T05:52:28.114Z,3.27
2022-10-08T05:55:31.081Z,2.90
2022-10-08T05:58:35.047Z,2.70
2022-10-08T06:01:38.010Z,3.50
2022-10-08T06:04:40.982Z,3.13
2022-10-08T06:07:45.325Z,3.23
2022-10-08T06:10:52.571Z,3.57
2022-10-08T06:13:56.858Z,3.17
2022-10-08T06:16:59.791Z,3.07
2022-10-08T06:20:02.775Z,2.70
2022-10-08T06:23:07.052Z,3.17
2022-10-08T06:26:11.186Z,2.93
2022-10-08T06:29:16.556Z,2.87
2022-10-08T06:32:19.543Z,3.00
2022-10-08T06:35:22.488Z,2.97
2022-10-08T06:38:26.806Z,2.80
2022-10-08T06:41:33.408Z,2.63
2022-10-08T06:44:36.439Z,2.67
2022-10-08T06:47:39.411Z,3.13
2022-10-08T06:50:42.818Z,2.87
2022-10-08T06:53:53.228Z,2.87
2022-10-08T06:56:56.222Z,3.00
2022-10-08T06:59:59.171Z,3.03
2022-10-08T07:03:02.217Z,2.90
2022-10-08T07:06:07.728Z,2.97
2022-10-08T07:09:13.375Z,3.17
2022-10-08T07:12:16.358Z,2.80
2022-10-08T07:15:19.295Z,2.80
2022-10-08T07:18:22.239Z,3.07
2022-10-08T07:21:25.265Z,2.30
2022-10-08T07:24:29.559Z,3.00
2022-10-08T07:27:32.536Z,2.70
2022-10-08T07:30:37.591Z,3.27
2022-10-08T07:33:40.779Z,2.37
2022-10-08T07:36:43.941Z,3.07
2022-10-08T07:39:48.314Z,2.80
2022-10-08T07:42:51.804Z,2.70
2022-10-08T07:45:54.891Z,2.90
2022-10-08T07:48:59.167Z,1.93
2022-10-08T07:52:02.351Z,2.33
2022-10-08T07:55:07.228Z,2.30
2022-10-08T07:58:10.200Z,2.10
2022-10-08T08:01:15.935Z,2.57
2022-10-08T08:04:19.030Z,2.37
2022-10-08T08:07:22.024Z,2.00
2022-10-08T08:10:26.394Z,2.50
2022-10-08T08:13:33.052Z,2.10
2022-10-08T08:16:40.279Z,1.93
2022-10-08T08:19:43.308Z,2.13
2022-10-08T08:22:46.546Z,1.80
2022-10-08T08:25:51.043Z,1.80
2022-10-08T08:28:55.299Z,2.07
2022-10-08T08:31:58.381Z,2.60
2022-10-08T08:35:01.362Z,2.03
2022-10-08T08:38:04.329Z,2.03
2022-10-08T08:41:19.774Z,2.30
2022-10-08T08:44:26.307Z,2.33
2022-10-08T08:47:35.695Z,1.87
2022-10-08T08:50:47.926Z,2.37
2022-10-08T08:53:51.718Z,2.13
2022-10-08T08:56:56.275Z,2.10
2022-10-08T09:00:04.894Z,2.00
2022-10-08T09:03:15.237Z,2.23
2022-10-08T09:06:22.614Z,1.77
2022-10-08T09:09:30.597Z,2.50
2022-10-08T09:12:39.465Z,1.87
2022-10-08T09:15:43.976Z,1.90
2022-10-08T09:18:48.783Z,2.00
2022-10-08T09:21:51.871Z,2.53
2022-10-08T09:24:59.958Z,1.63
2022-10-08T09:28:05.082Z,1.40
2022-10-08T09:31:26.905Z,2.03
2022-10-08T09:34:31.298Z,1.60
2022-10-08T09:37:34.306Z,1.70
2022-10-08T09:40:37.273Z,1.77
2022-10-08T09:43:41.584Z,1.67
2022-10-08T09:46:45.473Z,1.50
2022-10-08T09:50:02.391Z,1.40
2022-10-08T09:53:07.223Z,1.50
2022-10-08T09:56:11.780Z,1.60
2022-10-08T09:59:21.518Z,1.53
2022-10-08T10:02:30.797Z,1.50
2022-10-08T10:05:36.127Z,0.90
2022-10-08T10:08:49.799Z,0.90
2022-10-08T10:11:56.397Z,1.70
2022-10-08T10:15:03.879Z,1.00
2022-10-08T10:18:14.204Z,1.07
2022-10-08T10:21:22.310Z,1.23
2022-10-08T10:24:41.441Z,1.43
2022-10-08T10:27:50.503Z,1.43
2022-10-08T10:31:00.385Z,0.77
2022-10-08T10:34:10.533Z,1.00
2022-10-08T10:37:19.681Z,1.07
2022-10-08T10:40:36.122Z,1.30
2022-10-08T10:43:49.162Z,1.50
2022-10-08T10:46:58.048Z,1.27
2022-10-08T10:50:02.522Z,1.07
2022-10-08T10:53:14.651Z,1.10
2022-10-08T10:56:19.979Z,0.67
2022-10-08T10:59:35.184Z,1.13
2022-10-08T11:02:46.746Z,1.30
2022-10-08T11:05:56.900Z,1.03
2022-10-08T11:09:04.133Z,1.17
2022-10-08T11:12:21.762Z,1.20
2022-10-08T11:15:36.653Z,1.30
2022-10-08T11:18:48.565Z,1.20
2022-10-08T11:22:02.116Z,2.30
2022-10-08T11:25:19.260Z,1.30
2022-10-08T11:28:33.303Z,0.90
2022-10-08T11:31:42.067Z,1.00
2022-10-08T11:34:54.372Z,0.73
2022-10-08T11:38:07.031Z,0.80
2022-10-08T11:41:17.312Z,1.00
2022-10-08T11:44:21.583Z,0.80
2022-10-08T11:47:47.613Z,0.80
2022-10-08T11:50:52.114Z,0.63
2022-10-08T11:54:08.324Z,0.70
2022-10-08T11:57:14.501Z,0.70
2022-10-08T12:00:32.287Z,0.70
2022-10-08T12:03:38.062Z,0.67
2022-10-08T12:06:42.550Z,0.90
2022-10-08T12:10:30.820Z,0.67
2022-10-08T12:13:33.859Z,0.80
2022-10-08T12:17:10.451Z,0.67
2022-10-08T12:20:22.628Z,1.00
2022-10-08T12:23:42.163Z,0.67
2022-10-08T12:27:20.852Z,0.60
2022-10-08T12:30:51.838Z,0.90
2022-10-08T12:34:00.753Z,0.90
2022-10-08T12:37:16.397Z,0.87
2022-10-08T12:40:31.033Z,1.13
2022-10-08T12:43:41.966Z,0.97
2022-10-08T12:46:53.710Z,0.90
2022-10-08T12:50:01.299Z,0.80
2022-10-08T12:53:05.957Z,1.10
2022-10-08T12:56:09.139Z,1.00
2022-10-08T12:59:13.567Z,0.97
2022-10-08T13:02:28.982Z,1.10
2022-10-08T13:05:34.119Z,1.50
2022-10-08T13:08:38.834Z,1.20
2022-10-08T13:11:43.136Z,1.33
2022-10-08T13:14:46.100Z,1.10
2022-10-08T13:17:50.741Z,0.90
2022-10-08T13:20:58.317Z,1.20
2022-10-08T13:24:01.579Z,1.00
2022-10-08T13:27:04.822Z,1.30
2022-10-08T13:30:28.502Z,1.50
2022-10-08T13:33:35.905Z,1.00
2022-10-08T13:36:38.914Z,1.33
2022-10-08T13:39:43.519Z,1.17
2022-10-08T13:42:49.143Z,1.50
2022-10-08T13:45:52.460Z,0.90
2022-10-08T13:48:56.761Z,1.13
2022-10-08T13:52:00.128Z,1.20
2022-10-08T13:55:06.043Z,1.30
2022-10-08T13:58:09.138Z,1.70
2022-10-08T14:01:12.126Z,1.10
2022-10-08T14:04:17.878Z,1.10
2022-10-08T14:07:25.003Z,1.20
2022-10-08T14:10:28.370Z,1.20
2022-10-08T14:13:31.335Z,1.10
2022-10-08T14:16:34.396Z,1.30
2022-10-08T14:19:38.728Z,1.30
2022-10-08T14:22:41.862Z,1.03
2022-10-08T14:25:44.829Z,1.77
2022-10-08T14:28:47.856Z,1.30
2022-10-08T14:31:50.903Z,1.17
2022-10-08T14:34:55.288Z,1.10
2022-10-08T14:37:58.245Z,1.50
2022-10-08T14:41:01.366Z,1.70
2022-10-08T14:44:04.382Z,1.70
2022-10-08T14:47:07.421Z,1.53
2022-10-08T14:50:13.448Z,1.40
2022-10-08T14:53:16.462Z,1.63
2022-10-08T14:56:19.599Z,1.40
2022-10-08T14:59:22.790Z,1.37
2022-10-08T15:02:25.880Z,1.60
2022-10-08T15:05:30.318Z,1.30
2022-10-08T15:08:33.277Z,1.10
2022-10-08T15:11:36.243Z,1.63
2022-10-08T15:14:39.182Z,1.30
2022-10-08T15:17:42.197Z,1.43
2022-10-08T15:20:55.542Z,1.30
2022-10-08T15:23:58.510Z,1.43
2022-10-08T15:27:01.482Z,1.33
2022-10-08T15:30:05.116Z,1.60
2022-10-08T15:33:08.142Z,1.60
2022-10-08T15:36:23.353Z,1.50
2022-10-08T15:39:26.431Z,1.30
2022-10-08T15:42:29.408Z,1.83
2022-10-08T15:45:32.474Z,1.97
2022-10-08T15:48:35.578Z,1.30
2022-10-08T15:51:40.070Z,0.87
2022-10-08T15:54:43.754Z,1.17
2022-10-08T15:57:46.723Z,1.30
2022-10-08T16:00:49.961Z,1.27
2022-10-08T16:03:54.817Z,1.50
2022-10-08T16:06:59.162Z,1.20
2022-10-08T16:10:02.378Z,1.67
2022-10-08T16:13:05.408Z,1.40
2022-10-08T16:16:14.053Z,1.27
2022-10-08T16:19:19.836Z,1.23
2022-10-08T16:22:24.134Z,1.50
2022-10-08T16:25:27.179Z,1.90
2022-10-08T16:28:33.634Z,1.87
2022-10-08T16:31:38.487Z,1.30
2022-10-08T16:34:44.910Z,1.67
2022-10-08T16:37:51.855Z,1.80
2022-10-08T16:40:54.817Z,1.60
2022-10-08T16:43:59.201Z,1.87
2022-10-08T16:47:02.240Z,1.77
2022-10-08T16:50:05.893Z,1.63
2022-10-08T16:53:11.079Z,2.00
2022-10-08T16:56:14.075Z,1.50
2022-10-08T16:59:18.993Z,1.80
2022-10-08T17:02:25.779Z,1.50
2022-10-08T17:05:29.109Z,1.37
2022-10-08T17:08:33.448Z,1.60
2022-10-08T17:11:36.883Z,1.73
2022-10-08T17:14:39.847Z,2.10
2022-10-08T17:17:42.823Z,2.10
2022-10-08T17:20:45.783Z,1.90
2022-10-08T17:23:50.720Z,1.63
2022-10-08T17:26:53.862Z,2.20
2022-10-08T17:29:56.824Z,1.97
2022-10-08T17:33:00.042Z,1.63
2022-10-08T17:36:04.147Z,2.60
2022-10-08T17:39:11.914Z,2.57
2022-10-08T17:42:14.931Z,2.30
2022-10-08T17:45:17.925Z,2.30
2022-10-08T17:48:20.937Z,3.70
2022-10-08T17:51:26.600Z,3.57
2022-10-08T17:54:30.938Z,3.40
2022-10-08T17:57:33.918Z,2.63
2022-10-08T18:00:37.059Z,2.77
2022-10-08T18:03:42.095Z,3.27
2022-10-08T18:06:46.951Z,2.63
2022-10-08T18:09:51.367Z,3.17
2022-10-08T18:12:54.344Z,2.70
2022-10-08T18:15:57.361Z,2.97
2022-10-08T18:19:04.892Z,3.17
2022-10-08T18:22:10.736Z,2.83
2022-10-08T18:25:15.128Z,3.30
2022-10-08T18:28:20.212Z,2.77
2022-10-08T18:31:25.158Z,2.80
2022-10-08T18:34:28.323Z,2.87
2022-10-08T18:37:31.350Z,2.80
2022-10-08T18:40:35.759Z,2.77
2022-10-08T18:43:38.899Z,2.70
2022-10-08T18:46:42.246Z,3.03
2022-10-08T18:49:45.256Z,3.13
2022-10-08T18:52:48.438Z,3.03
2022-10-08T18:55:53.179Z,2.93
2022-10-08T18:58:56.281Z,3.67
2022-10-08T19:01:59.754Z,3.53
2022-10-08T19:05:02.801Z,3.60
2022-10-08T19:08:05.780Z,4.10
2022-10-08T19:11:15.275Z,3.77
2022-10-08T19:14:20.208Z,3.03
2022-10-08T19:17:23.239Z,2.53
2022-10-08T19:20:26.194Z,2.80
2022-10-08T19:23:29.177Z,2.17
2022-10-08T19:26:33.499Z,2.40
2022-10-08T19:29:36.471Z,2.00
2022-10-08T19:32:39.430Z,1.50
2022-10-08T19:35:42.571Z,1.63
2022-10-08T19:38:45.973Z,1.70
2022-10-08T19:41:50.653Z,1.50
2022-10-08T19:44:53.612Z,2.10
2022-10-08T19:47:56.605Z,1.80
2022-10-08T19:51:04.787Z,2.10
2022-10-08T19:54:08.175Z,1.70
2022-10-08T19:57:12.488Z,3.20
2022-10-08T20:00:16.159Z,2.60
2022-10-08T20:03:19.135Z,2.43
2022-10-08T20:06:24.843Z,2.63
2022-10-08T20:09:28.131Z,2.53
2022-10-08T20:12:32.427Z,4.00
2022-10-08T20:15:36.459Z,2.80
2022-10-08T20:18:39.629Z,2.30
2022-10-08T20:21:42.764Z,1.80
2022-10-08T20:24:45.759Z,2.23
2022-10-08T20:27:50.088Z,1.80
2022-10-08T20:30:53.106Z,2.20
2022-10-08T20:33:58.278Z,2.23
2022-10-08T20:37:02.447Z,2.10
2022-10-08T20:40:06.247Z,2.27
2022-10-08T20:43:10.616Z,2.73
2022-10-08T20:46:16.154Z,2.13
2022-10-08T20:49:19.569Z,2.40
2022-10-08T20:52:22.517Z,2.00
2022-10-08T20:55:25.495Z,2.50
2022-10-08T20:58:31.227Z,2.30
2022-10-08T21:01:36.093Z,2.23
2022-10-08T21:04:39.166Z,1.90
2022-10-08T21:07:42.157Z,2.80
2022-10-08T21:10:45.092Z,2.77
2022-10-08T21:13:49.746Z,2.00
2022-10-08T21:16:53.492Z,2.33
2022-10-08T21:19:56.466Z,2.10
2022-10-08T21:22:59.417Z,2.00
2022-10-08T21:26:10.699Z,1.97
2022-10-08T21:29:15.474Z,1.67
2022-10-08T21:32:18.427Z,2.07
2022-10-08T21:35:21.399Z,1.77
2022-10-08T21:38:24.727Z,2.00
2022-10-08T21:41:30.522Z,2.17
2022-10-08T21:44:35.374Z,1.93
2022-10-08T21:47:38.346Z,2.03
2022-10-08T21:50:41.318Z,1.93
2022-10-08T21:53:46.849Z,2.23
2022-10-08T21:56:49.994Z,2.63
2022-10-08T21:59:54.302Z,2.43
2022-10-08T22:02:57.246Z,1.70
2022-10-08T22:06:02.465Z,2.07
2022-10-08T22:09:05.915Z,2.43
2022-10-08T22:12:08.913Z,2.20
2022-10-08T22:15:13.358Z,1.67
2022-10-08T22:18:16.319Z,1.90
2022-10-08T22:21:21.491Z,2.30
2022-10-08T22:24:24.511Z,2.30
2022-10-08T22:27:29.755Z,2.13
2022-10-08T22:30:36.984Z,1.97
2022-10-08T22:33:40.092Z,1.83
2022-10-08T22:36:45.185Z,2.10
2022-10-08T22:39:48.274Z,2.00
2022-10-08T22:42:51.383Z,2.20
2022-10-08T22:45:55.842Z,1.97
2022-10-08T22:48:59.462Z,1.60
2022-10-08T22:52:02.592Z,1.90
2022-10-08T22:55:06.291Z,2.00
2022-10-08T22:58:09.631Z,1.97
2022-10-08T23:01:15.570Z,1.90
2022-10-08T23:04:18.592Z,2.00
2022-10-08T23:07:21.554Z,2.00
2022-10-08T23:10:25.027Z,1.83
2022-10-08T23:13:28.645Z,1.90
2022-10-08T23:16:34.286Z,2.70
2022-10-08T23:19:37.340Z,1.80
2022-10-08T23:22:40.307Z,1.97
2022-10-08T23:25:53.766Z,1.90
2022-10-08T23:28:59.253Z,2.07
2022-10-08T23:32:03.614Z,2.13
2022-10-08T23:35:07.508Z,2.00
2022-10-08T23:38:10.868Z,1.93
2022-10-08T23:41:14.744Z,1.90
2022-10-08T23:44:17.696Z,1.87
2022-10-08T23:47:22.031Z,2.17
2022-10-08T23:50:25.039Z,2.10
2022-10-08T23:53:28.239Z,2.00
2022-10-08T23:56:31.447Z,1.97
2022-10-08T23:59:34.418Z,1.70
